sensor_id;sensor_type;location;lat;lon;timestamp;temperature;humidity
15341;DHT22;7770;52.158;5.372;2023-05-15T00:02:46;12.50;99.90
15341;DHT22;7770;52.158;5.372;2023-05-15T00:05:33;12.50;99.90
15341;DHT22;7770;52.158;5.372;2023-05-15T00:08:19;12.50;99.90
15341;DHT22;7770;52.158;5.372;2023-05-15T00:11:05;12.40;99.90
15341;DHT22;7770;52.158;5.372;2023-05-15T00:13:51;12.30;99.90
15341;DHT22;7770;52.158;5.372;2023-05-15T00:16:38;12.30;99.90
15341;DHT22;7770;52.158;5.372;2023-05-15T00:19:24;12.30;99.90
15341;DHT22;7770;52.158;5.372;2023-05-15T00:22:10;12.20;99.90
15341;DHT22;7770;52.158;5.372;2023-05-15T00:24:55;12.20;99.90
15341;DHT22;7770;52.158;5.372;2023-05-15T00:27:44;12.20;99.90
15341;DHT22;7770;52.158;5.372;2023-05-15T00:30:30;12.10;99.90
15341;DHT22;7770;52.158;5.372;2023-05-15T00:33:16;12.00;99.90
15341;DHT22;7770;52.158;5.372;2023-05-15T00:36:03;11.90;99.90
15341;DHT22;7770;52.158;5.372;2023-05-15T00:38:50;11.90;99.90
15341;DHT22;7770;52.158;5.372;2023-05-15T00:41:36;11.90;99.90
15341;DHT22;7770;52.158;5.372;2023-05-15T00:44:24;11.80;99.90
15341;DHT22;7770;52.158;5.372;2023-05-15T00:47:11;11.80;99.90
15341;DHT22;7770;52.158;5.372;2023-05-15T00:49:58;11.70;99.90
15341;DHT22;7770;52.158;5.372;2023-05-15T00:52:44;11.70;99.90
15341;DHT22;7770;52.158;5.372;2023-05-15T00:55:31;11.70;99.90
15341;DHT22;7770;52.158;5.372;2023-05-15T00:58:20;11.60;99.90
15341;DHT22;7770;52.158;5.372;2023-05-15T01:01:07;11.50;99.90
15341;DHT22;7770;52.158;5.372;2023-05-15T01:03:53;11.50;99.90
15341;DHT22;7770;52.158;5.372;2023-05-15T01:06:39;11.40;99.90
15341;DHT22;7770;52.158;5.372;2023-05-15T01:09:26;11.40;99.90
15341;DHT22;7770;52.158;5.372;2023-05-15T01:12:16;11.30;99.90
15341;DHT22;7770;52.158;5.372;2023-05-15T01:15:03;11.30;99.90
15341;DHT22;7770;52.158;5.372;2023-05-15T01:17:49;11.40;99.90
15341;DHT22;7770;52.158;5.372;2023-05-15T01:30:35;11.50;99.90
15341;DHT22;7770;52.158;5.372;2023-05-15T01:33:31;11.40;99.90
15341;DHT22;7770;52.158;5.372;2023-05-15T01:36:25;11.30;99.90
15341;DHT22;7770;52.158;5.372;2023-05-15T01:39:32;11.20;99.90
15341;DHT22;7770;52.158;5.372;2023-05-15T01:42:19;11.20;99.90
15341;DHT22;7770;52.158;5.372;2023-05-15T01:45:10;11.10;99.90
15341;DHT22;7770;52.158;5.372;2023-05-15T01:47:58;11.00;99.90
15341;DHT22;7770;52.158;5.372;2023-05-15T01:50:47;11.00;99.90
15341;DHT22;7770;52.158;5.372;2023-05-15T01:53:34;10.90;99.90
15341;DHT22;7770;52.158;5.372;2023-05-15T01:56:22;11.00;99.90
15341;DHT22;7770;52.158;5.372;2023-05-15T01:59:10;11.10;99.90
15341;DHT22;7770;52.158;5.372;2023-05-15T02:01:59;11.20;99.90
15341;DHT22;7770;52.158;5.372;2023-05-15T02:04:46;11.30;99.90
15341;DHT22;7770;52.158;5.372;2023-05-15T02:07:33;11.40;99.90
15341;DHT22;7770;52.158;5.372;2023-05-15T02:10:20;11.50;99.90
15341;DHT22;7770;52.158;5.372;2023-05-15T02:13:10;11.60;99.90
15341;DHT22;7770;52.158;5.372;2023-05-15T02:15:57;11.60;99.90
15341;DHT22;7770;52.158;5.372;2023-05-15T02:18:43;11.70;99.90
15341;DHT22;7770;52.158;5.372;2023-05-15T02:21:29;11.70;99.90
15341;DHT22;7770;52.158;5.372;2023-05-15T02:24:15;11.80;99.90
15341;DHT22;7770;52.158;5.372;2023-05-15T02:27:18;11.80;99.90
15341;DHT22;7770;52.158;5.372;2023-05-15T02:33:34;11.80;99.90
15341;DHT22;7770;52.158;5.372;2023-05-15T02:36:29;11.70;99.90
15341;DHT22;7770;52.158;5.372;2023-05-15T02:39:19;11.70;99.90
15341;DHT22;7770;52.158;5.372;2023-05-15T02:42:09;11.70;99.90
15341;DHT22;7770;52.158;5.372;2023-05-15T02:44:57;11.70;99.90
15341;DHT22;7770;52.158;5.372;2023-05-15T02:47:43;11.80;99.90
15341;DHT22;7770;52.158;5.372;2023-05-15T02:50:30;11.80;99.90
15341;DHT22;7770;52.158;5.372;2023-05-15T02:53:16;11.80;99.90
15341;DHT22;7770;52.158;5.372;2023-05-15T02:56:02;11.80;99.90
15341;DHT22;7770;52.158;5.372;2023-05-15T02:58:48;11.60;99.90
15341;DHT22;7770;52.158;5.372;2023-05-15T03:01:34;11.60;99.90
15341;DHT22;7770;52.158;5.372;2023-05-15T03:04:20;11.60;99.90
15341;DHT22;7770;52.158;5.372;2023-05-15T03:07:06;11.60;99.90
15341;DHT22;7770;52.158;5.372;2023-05-15T03:09:52;11.60;99.90
15341;DHT22;7770;52.158;5.372;2023-05-15T03:12:38;11.60;99.90
15341;DHT22;7770;52.158;5.372;2023-05-15T03:15:24;11.60;99.90
15341;DHT22;7770;52.158;5.372;2023-05-15T03:18:10;11.70;99.90
15341;DHT22;7770;52.158;5.372;2023-05-15T03:20:56;11.60;99.90
15341;DHT22;7770;52.158;5.372;2023-05-15T03:23:42;11.60;99.90
15341;DHT22;7770;52.158;5.372;2023-05-15T03:26:28;11.50;99.90
15341;DHT22;7770;52.158;5.372;2023-05-15T03:29:14;11.50;99.90
15341;DHT22;7770;52.158;5.372;2023-05-15T03:32:00;11.50;99.90
15341;DHT22;7770;52.158;5.372;2023-05-15T03:34:46;11.60;99.90
15341;DHT22;7770;52.158;5.372;2023-05-15T03:37:32;11.60;99.90
15341;DHT22;7770;52.158;5.372;2023-05-15T03:40:18;11.50;99.90
15341;DHT22;7770;52.158;5.372;2023-05-15T03:43:05;11.50;99.90
15341;DHT22;7770;52.158;5.372;2023-05-15T03:45:51;11.50;99.90
15341;DHT22;7770;52.158;5.372;2023-05-15T03:48:37;11.40;99.90
15341;DHT22;7770;52.158;5.372;2023-05-15T03:51:23;11.50;99.90
15341;DHT22;7770;52.158;5.372;2023-05-15T03:54:09;11.50;99.90
15341;DHT22;7770;52.158;5.372;2023-05-15T03:56:55;11.50;99.90
15341;DHT22;7770;52.158;5.372;2023-05-15T03:59:41;11.50;99.90
15341;DHT22;7770;52.158;5.372;2023-05-15T04:02:27;11.50;99.90
15341;DHT22;7770;52.158;5.372;2023-05-15T04:05:14;11.60;99.90
15341;DHT22;7770;52.158;5.372;2023-05-15T04:08:00;11.60;99.90
15341;DHT22;7770;52.158;5.372;2023-05-15T04:10:46;11.60;99.90
15341;DHT22;7770;52.158;5.372;2023-05-15T04:13:32;11.60;99.90
15341;DHT22;7770;52.158;5.372;2023-05-15T04:16:18;11.60;99.90
15341;DHT22;7770;52.158;5.372;2023-05-15T04:19:04;11.50;99.90
15341;DHT22;7770;52.158;5.372;2023-05-15T04:21:50;11.50;99.90
15341;DHT22;7770;52.158;5.372;2023-05-15T04:24:36;11.50;99.90
15341;DHT22;7770;52.158;5.372;2023-05-15T04:27:22;11.60;99.90
15341;DHT22;7770;52.158;5.372;2023-05-15T04:30:08;11.50;99.90
15341;DHT22;7770;52.158;5.372;2023-05-15T04:32:55;11.50;99.90
15341;DHT22;7770;52.158;5.372;2023-05-15T04:35:42;11.40;99.90
15341;DHT22;7770;52.158;5.372;2023-05-15T04:38:28;11.50;99.90
15341;DHT22;7770;52.158;5.372;2023-05-15T04:41:14;11.50;99.90
15341;DHT22;7770;52.158;5.372;2023-05-15T04:44:00;11.50;99.90
15341;DHT22;7770;52.158;5.372;2023-05-15T04:46:47;11.60;99.90
15341;DHT22;7770;52.158;5.372;2023-05-15T04:49:33;11.50;99.90
15341;DHT22;7770;52.158;5.372;2023-05-15T04:52:19;11.50;99.90
15341;DHT22;7770;52.158;5.372;2023-05-15T04:55:06;11.50;99.90
15341;DHT22;7770;52.158;5.372;2023-05-15T04:57:52;11.50;99.90
15341;DHT22;7770;52.158;5.372;2023-05-15T05:00:38;11.50;99.90
15341;DHT22;7770;52.158;5.372;2023-05-15T05:03:24;11.60;99.90
15341;DHT22;7770;52.158;5.372;2023-05-15T05:06:10;11.70;99.90
15341;DHT22;7770;52.158;5.372;2023-05-15T05:08:57;11.80;99.90
15341;DHT22;7770;52.158;5.372;2023-05-15T05:11:43;11.90;99.90
15341;DHT22;7770;52.158;5.372;2023-05-15T05:14:29;11.90;99.90
15341;DHT22;7770;52.158;5.372;2023-05-15T05:17:16;11.90;99.90
15341;DHT22;7770;52.158;5.372;2023-05-15T05:20:02;11.90;99.90
15341;DHT22;7770;52.158;5.372;2023-05-15T05:22:49;12.00;99.90
15341;DHT22;7770;52.158;5.372;2023-05-15T05:25:35;12.10;99.90
15341;DHT22;7770;52.158;5.372;2023-05-15T05:28:22;12.20;99.90
15341;DHT22;7770;52.158;5.372;2023-05-15T05:31:08;12.30;99.90
15341;DHT22;7770;52.158;5.372;2023-05-15T05:33:54;12.30;99.90
15341;DHT22;7770;52.158;5.372;2023-05-15T05:36:40;12.40;99.90
15341;DHT22;7770;52.158;5.372;2023-05-15T05:39:26;12.50;99.90
15341;DHT22;7770;52.158;5.372;2023-05-15T05:42:12;12.70;99.90
15341;DHT22;7770;52.158;5.372;2023-05-15T05:44:58;12.80;99.90
15341;DHT22;7770;52.158;5.372;2023-05-15T05:47:44;12.80;99.90
15341;DHT22;7770;52.158;5.372;2023-05-15T05:50:30;12.90;99.90
15341;DHT22;7770;52.158;5.372;2023-05-15T05:53:16;13.00;99.90
15341;DHT22;7770;52.158;5.372;2023-05-15T05:56:02;13.00;99.90
15341;DHT22;7770;52.158;5.372;2023-05-15T05:58:48;13.10;99.90
15341;DHT22;7770;52.158;5.372;2023-05-15T06:01:35;13.20;99.90
15341;DHT22;7770;52.158;5.372;2023-05-15T06:04:21;13.30;99.90
15341;DHT22;7770;52.158;5.372;2023-05-15T06:07:07;13.40;99.90
15341;DHT22;7770;52.158;5.372;2023-05-15T06:09:53;13.60;99.90
15341;DHT22;7770;52.158;5.372;2023-05-15T06:12:39;13.70;99.90
15341;DHT22;7770;52.158;5.372;2023-05-15T06:15:25;14.00;99.90
15341;DHT22;7770;52.158;5.372;2023-05-15T06:18:11;14.10;99.90
15341;DHT22;7770;52.158;5.372;2023-05-15T06:20:57;14.40;99.90
15341;DHT22;7770;52.158;5.372;2023-05-15T06:23:44;14.70;99.90
15341;DHT22;7770;52.158;5.372;2023-05-15T06:26:31;15.20;99.90
15341;DHT22;7770;52.158;5.372;2023-05-15T06:29:17;15.70;99.90
15341;DHT22;7770;52.158;5.372;2023-05-15T06:32:03;16.00;99.90
15341;DHT22;7770;52.158;5.372;2023-05-15T06:34:49;16.10;99.90
15341;DHT22;7770;52.158;5.372;2023-05-15T06:37:35;16.10;99.90
15341;DHT22;7770;52.158;5.372;2023-05-15T06:40:22;16.10;99.90
15341;DHT22;7770;52.158;5.372;2023-05-15T06:43:08;16.30;99.90
15341;DHT22;7770;52.158;5.372;2023-05-15T06:45:54;16.30;99.90
15341;DHT22;7770;52.158;5.372;2023-05-15T06:48:40;16.50;99.90
15341;DHT22;7770;52.158;5.372;2023-05-15T06:51:26;17.10;99.90
15341;DHT22;7770;52.158;5.372;2023-05-15T06:54:12;17.60;99.90
15341;DHT22;7770;52.158;5.372;2023-05-15T06:56:58;17.50;99.90
15341;DHT22;7770;52.158;5.372;2023-05-15T06:59:44;17.40;99.90
15341;DHT22;7770;52.158;5.372;2023-05-15T07:02:30;17.20;99.90
15341;DHT22;7770;52.158;5.372;2023-05-15T07:05:17;17.00;99.90
15341;DHT22;7770;52.158;5.372;2023-05-15T07:08:03;16.80;99.90
15341;DHT22;7770;52.158;5.372;2023-05-15T07:10:50;16.80;99.90
15341;DHT22;7770;52.158;5.372;2023-05-15T07:13:36;17.00;99.90
15341;DHT22;7770;52.158;5.372;2023-05-15T07:16:22;17.00;99.90
15341;DHT22;7770;52.158;5.372;2023-05-15T07:19:08;17.40;99.90
15341;DHT22;7770;52.158;5.372;2023-05-15T07:21:54;18.00;99.90
15341;DHT22;7770;52.158;5.372;2023-05-15T07:24:41;18.80;99.90
15341;DHT22;7770;52.158;5.372;2023-05-15T07:27:27;18.50;99.90
15341;DHT22;7770;52.158;5.372;2023-05-15T07:30:13;18.60;99.90
15341;DHT22;7770;52.158;5.372;2023-05-15T07:32:59;18.40;99.90
15341;DHT22;7770;52.158;5.372;2023-05-15T07:35:45;18.30;99.90
15341;DHT22;7770;52.158;5.372;2023-05-15T07:38:31;18.50;99.90
15341;DHT22;7770;52.158;5.372;2023-05-15T07:41:17;18.80;99.90
15341;DHT22;7770;52.158;5.372;2023-05-15T07:44:03;19.10;99.90
15341;DHT22;7770;52.158;5.372;2023-05-15T07:46:49;19.40;99.90
15341;DHT22;7770;52.158;5.372;2023-05-15T07:49:35;19.00;99.90
15341;DHT22;7770;52.158;5.372;2023-05-15T07:52:21;18.90;99.90
15341;DHT22;7770;52.158;5.372;2023-05-15T07:55:08;19.20;99.90
15341;DHT22;7770;52.158;5.372;2023-05-15T07:57:55;20.60;99.90
15341;DHT22;7770;52.158;5.372;2023-05-15T08:00:41;22.40;99.50
15341;DHT22;7770;52.158;5.372;2023-05-15T08:03:27;23.00;97.90
15341;DHT22;7770;52.158;5.372;2023-05-15T08:06:13;22.70;97.60
15341;DHT22;7770;52.158;5.372;2023-05-15T08:08:59;22.70;98.00
15341;DHT22;7770;52.158;5.372;2023-05-15T08:11:45;22.50;97.20
15341;DHT22;7770;52.158;5.372;2023-05-15T08:14:32;22.40;97.90
15341;DHT22;7770;52.158;5.372;2023-05-15T08:17:19;22.50;97.70
15341;DHT22;7770;52.158;5.372;2023-05-15T08:20:06;23.10;97.50
15341;DHT22;7770;52.158;5.372;2023-05-15T08:22:52;23.30;96.60
15341;DHT22;7770;52.158;5.372;2023-05-15T08:25:38;23.00;97.20
15341;DHT22;7770;52.158;5.372;2023-05-15T08:28:24;22.40;97.80
15341;DHT22;7770;52.158;5.372;2023-05-15T08:31:10;22.30;97.80
15341;DHT22;7770;52.158;5.372;2023-05-15T08:33:56;22.10;98.40
15341;DHT22;7770;52.158;5.372;2023-05-15T08:36:42;21.80;98.00
15341;DHT22;7770;52.158;5.372;2023-05-15T08:39:29;21.10;99.20
15341;DHT22;7770;52.158;5.372;2023-05-15T08:45:25;20.90;99.90
15341;DHT22;7770;52.158;5.372;2023-05-15T08:48:18;20.80;99.90
15341;DHT22;7770;52.158;5.372;2023-05-15T08:51:08;20.20;99.90
15341;DHT22;7770;52.158;5.372;2023-05-15T08:53:55;20.30;99.90
15341;DHT22;7770;52.158;5.372;2023-05-15T08:56:41;20.30;99.90
15341;DHT22;7770;52.158;5.372;2023-05-15T08:59:28;20.60;99.90
15341;DHT22;7770;52.158;5.372;2023-05-15T09:02:15;20.80;99.90
15341;DHT22;7770;52.158;5.372;2023-05-15T09:05:01;20.80;99.90
15341;DHT22;7770;52.158;5.372;2023-05-15T09:07:50;20.80;99.90
15341;DHT22;7770;52.158;5.372;2023-05-15T09:10:37;21.20;99.90
15341;DHT22;7770;52.158;5.372;2023-05-15T09:13:23;21.40;99.90
15341;DHT22;7770;52.158;5.372;2023-05-15T09:16:09;21.40;99.90
15341;DHT22;7770;52.158;5.372;2023-05-15T09:18:57;21.10;99.90
15341;DHT22;7770;52.158;5.372;2023-05-15T09:21:44;21.60;99.90
15341;DHT22;7770;52.158;5.372;2023-05-15T09:24:30;22.40;99.90
15341;DHT22;7770;52.158;5.372;2023-05-15T09:27:16;23.20;99.20
15341;DHT22;7770;52.158;5.372;2023-05-15T09:30:09;23.40;99.10
15341;DHT22;7770;52.158;5.372;2023-05-15T09:32:58;23.40;98.30
15341;DHT22;7770;52.158;5.372;2023-05-15T09:35:46;23.10;99.10
15341;DHT22;7770;52.158;5.372;2023-05-15T09:38:33;23.10;99.10
15341;DHT22;7770;52.158;5.372;2023-05-15T09:41:24;23.20;99.10
15341;DHT22;7770;52.158;5.372;2023-05-15T09:44:18;22.80;99.60
15341;DHT22;7770;52.158;5.372;2023-05-15T09:47:12;22.60;99.90
15341;DHT22;7770;52.158;5.372;2023-05-15T09:49:58;21.60;99.90
15341;DHT22;7770;52.158;5.372;2023-05-15T09:52:44;20.90;99.90
15341;DHT22;7770;52.158;5.372;2023-05-15T09:55:32;20.40;99.90
15341;DHT22;7770;52.158;5.372;2023-05-15T09:58:19;20.00;99.90
15341;DHT22;7770;52.158;5.372;2023-05-15T10:01:09;19.80;99.90
15341;DHT22;7770;52.158;5.372;2023-05-15T10:04:00;19.60;99.90
15341;DHT22;7770;52.158;5.372;2023-05-15T10:06:48;19.20;99.90
15341;DHT22;7770;52.158;5.372;2023-05-15T10:09:34;18.90;99.90
15341;DHT22;7770;52.158;5.372;2023-05-15T10:12:21;18.30;99.90
15341;DHT22;7770;52.158;5.372;2023-05-15T10:15:08;18.20;99.90
15341;DHT22;7770;52.158;5.372;2023-05-15T10:17:55;18.00;99.90
15341;DHT22;7770;52.158;5.372;2023-05-15T10:20:41;17.90;99.90
15341;DHT22;7770;52.158;5.372;2023-05-15T10:23:29;17.70;99.90
15341;DHT22;7770;52.158;5.372;2023-05-15T10:26:22;17.50;99.90
15341;DHT22;7770;52.158;5.372;2023-05-15T10:29:13;17.60;99.90
15341;DHT22;7770;52.158;5.372;2023-05-15T10:32:01;17.80;99.90
15341;DHT22;7770;52.158;5.372;2023-05-15T10:34:48;17.80;99.90
15341;DHT22;7770;52.158;5.372;2023-05-15T10:37:34;17.80;99.90
15341;DHT22;7770;52.158;5.372;2023-05-15T10:40:21;17.70;99.90
15341;DHT22;7770;52.158;5.372;2023-05-15T10:43:08;17.50;99.90
15341;DHT22;7770;52.158;5.372;2023-05-15T10:45:57;17.60;99.90
15341;DHT22;7770;52.158;5.372;2023-05-15T10:48:43;17.70;99.90
15341;DHT22;7770;52.158;5.372;2023-05-15T10:51:31;17.30;99.90
15341;DHT22;7770;52.158;5.372;2023-05-15T10:54:18;17.30;99.90
15341;DHT22;7770;52.158;5.372;2023-05-15T10:57:04;17.20;99.90
15341;DHT22;7770;52.158;5.372;2023-05-15T10:59:51;17.10;99.90
15341;DHT22;7770;52.158;5.372;2023-05-15T11:02:37;17.00;99.90
15341;DHT22;7770;52.158;5.372;2023-05-15T11:05:24;17.20;99.90
15341;DHT22;7770;52.158;5.372;2023-05-15T11:11:04;17.30;99.90
15341;DHT22;7770;52.158;5.372;2023-05-15T11:22:36;17.50;99.90
15341;DHT22;7770;52.158;5.372;2023-05-15T11:25:30;17.50;99.90
15341;DHT22;7770;52.158;5.372;2023-05-15T11:28:23;17.50;99.90
15341;DHT22;7770;52.158;5.372;2023-05-15T11:31:10;17.40;99.90
15341;DHT22;7770;52.158;5.372;2023-05-15T11:33:56;17.20;99.90
15341;DHT22;7770;52.158;5.372;2023-05-15T11:36:42;17.10;99.90
15341;DHT22;7770;52.158;5.372;2023-05-15T11:39:28;17.00;99.90
15341;DHT22;7770;52.158;5.372;2023-05-15T11:42:14;17.20;99.90
15341;DHT22;7770;52.158;5.372;2023-05-15T11:45:01;17.10;99.90
15341;DHT22;7770;52.158;5.372;2023-05-15T11:47:47;17.20;99.90
15341;DHT22;7770;52.158;5.372;2023-05-15T11:50:34;17.40;99.90
15341;DHT22;7770;52.158;5.372;2023-05-15T11:53:20;17.70;99.90
15341;DHT22;7770;52.158;5.372;2023-05-15T11:56:15;18.00;99.90
15341;DHT22;7770;52.158;5.372;2023-05-15T11:59:03;17.70;99.90
15341;DHT22;7770;52.158;5.372;2023-05-15T12:01:48;17.80;99.90
15341;DHT22;7770;52.158;5.372;2023-05-15T12:04:34;18.00;99.90
15341;DHT22;7770;52.158;5.372;2023-05-15T12:07:20;18.10;99.90
15341;DHT22;7770;52.158;5.372;2023-05-15T12:10:09;18.40;99.90
15341;DHT22;7770;52.158;5.372;2023-05-15T12:12:57;18.70;99.90
15341;DHT22;7770;52.158;5.372;2023-05-15T12:15:45;18.70;99.90
15341;DHT22;7770;52.158;5.372;2023-05-15T12:18:32;18.80;99.90
15341;DHT22;7770;52.158;5.372;2023-05-15T12:21:18;18.50;99.90
15341;DHT22;7770;52.158;5.372;2023-05-15T12:24:04;17.90;99.90
15341;DHT22;7770;52.158;5.372;2023-05-15T12:26:50;18.30;99.90
15341;DHT22;7770;52.158;5.372;2023-05-15T12:29:37;19.20;99.90
15341;DHT22;7770;52.158;5.372;2023-05-15T12:32:24;19.60;99.90
15341;DHT22;7770;52.158;5.372;2023-05-15T12:35:11;20.10;99.90
15341;DHT22;7770;52.158;5.372;2023-05-15T12:37:57;20.40;99.90
15341;DHT22;7770;52.158;5.372;2023-05-15T12:40:44;20.60;99.90
15341;DHT22;7770;52.158;5.372;2023-05-15T12:43:31;20.30;99.90
15341;DHT22;7770;52.158;5.372;2023-05-15T12:46:21;20.00;99.90
15341;DHT22;7770;52.158;5.372;2023-05-15T12:49:11;20.20;99.90
15341;DHT22;7770;52.158;5.372;2023-05-15T12:51:57;20.20;99.90
15341;DHT22;7770;52.158;5.372;2023-05-15T12:54:43;20.40;99.90
15341;DHT22;7770;52.158;5.372;2023-05-15T12:57:29;20.50;99.90
15341;DHT22;7770;52.158;5.372;2023-05-15T13:00:15;20.90;99.90
15341;DHT22;7770;52.158;5.372;2023-05-15T13:03:03;20.90;99.90
15341;DHT22;7770;52.158;5.372;2023-05-15T13:05:50;20.40;99.90
15341;DHT22;7770;52.158;5.372;2023-05-15T13:08:40;20.00;99.90
15341;DHT22;7770;52.158;5.372;2023-05-15T13:11:29;20.20;99.90
15341;DHT22;7770;52.158;5.372;2023-05-15T13:14:16;20.60;99.90
15341;DHT22;7770;52.158;5.372;2023-05-15T13:17:03;21.10;99.90
15341;DHT22;7770;52.158;5.372;2023-05-15T13:19:49;20.90;99.90
15341;DHT22;7770;52.158;5.372;2023-05-15T13:22:35;20.20;99.90
15341;DHT22;7770;52.158;5.372;2023-05-15T13:25:21;19.40;99.90
15341;DHT22;7770;52.158;5.372;2023-05-15T13:28:08;19.20;99.90
15341;DHT22;7770;52.158;5.372;2023-05-15T13:30:57;19.00;99.90
15341;DHT22;7770;52.158;5.372;2023-05-15T13:33:43;18.60;99.90
15341;DHT22;7770;52.158;5.372;2023-05-15T13:36:29;18.50;99.90
15341;DHT22;7770;52.158;5.372;2023-05-15T13:39:16;18.40;99.90
15341;DHT22;7770;52.158;5.372;2023-05-15T13:42:02;18.00;99.90
15341;DHT22;7770;52.158;5.372;2023-05-15T13:44:48;17.80;99.90
15341;DHT22;7770;52.158;5.372;2023-05-15T13:47:34;17.70;99.90
15341;DHT22;7770;52.158;5.372;2023-05-15T13:50:20;17.70;99.90
15341;DHT22;7770;52.158;5.372;2023-05-15T13:53:06;17.60;99.90
15341;DHT22;7770;52.158;5.372;2023-05-15T13:55:52;17.50;99.90
15341;DHT22;7770;52.158;5.372;2023-05-15T13:58:38;17.30;99.90
15341;DHT22;7770;52.158;5.372;2023-05-15T14:01:25;17.00;99.90
15341;DHT22;7770;52.158;5.372;2023-05-15T14:04:11;16.80;99.90
15341;DHT22;7770;52.158;5.372;2023-05-15T14:06:57;16.80;99.90
15341;DHT22;7770;52.158;5.372;2023-05-15T14:09:43;17.00;99.90
15341;DHT22;7770;52.158;5.372;2023-05-15T14:12:29;17.40;99.90
15341;DHT22;7770;52.158;5.372;2023-05-15T14:15:15;18.00;99.90
15341;DHT22;7770;52.158;5.372;2023-05-15T14:18:01;18.40;99.90
15341;DHT22;7770;52.158;5.372;2023-05-15T14:20:47;18.20;99.90
15341;DHT22;7770;52.158;5.372;2023-05-15T14:23:33;17.80;99.90
15341;DHT22;7770;52.158;5.372;2023-05-15T14:26:20;17.40;99.90
15341;DHT22;7770;52.158;5.372;2023-05-15T14:29:06;17.40;99.90
15341;DHT22;7770;52.158;5.372;2023-05-15T14:31:53;17.10;99.90
15341;DHT22;7770;52.158;5.372;2023-05-15T14:34:39;16.90;99.90
15341;DHT22;7770;52.158;5.372;2023-05-15T14:37:25;16.70;99.90
15341;DHT22;7770;52.158;5.372;2023-05-15T14:40:12;16.50;99.90
15341;DHT22;7770;52.158;5.372;2023-05-15T14:42:58;16.70;99.90
15341;DHT22;7770;52.158;5.372;2023-05-15T14:45:44;16.60;99.90
15341;DHT22;7770;52.158;5.372;2023-05-15T14:48:30;16.60;99.90
15341;DHT22;7770;52.158;5.372;2023-05-15T14:51:16;16.50;99.90
15341;DHT22;7770;52.158;5.372;2023-05-15T14:54:02;16.20;99.90
15341;DHT22;7770;52.158;5.372;2023-05-15T14:56:49;16.10;99.90
15341;DHT22;7770;52.158;5.372;2023-05-15T14:59:35;15.80;99.90
15341;DHT22;7770;52.158;5.372;2023-05-15T15:02:21;15.60;99.90
15341;DHT22;7770;52.158;5.372;2023-05-15T15:05:08;15.50;99.90
15341;DHT22;7770;52.158;5.372;2023-05-15T15:08:08;15.70;99.90
15341;DHT22;7770;52.158;5.372;2023-05-15T15:10:54;15.90;99.90
15341;DHT22;7770;52.158;5.372;2023-05-15T15:13:40;16.00;99.90
15341;DHT22;7770;52.158;5.372;2023-05-15T15:16:26;16.00;99.90
15341;DHT22;7770;52.158;5.372;2023-05-15T15:19:12;15.60;99.90
15341;DHT22;7770;52.158;5.372;2023-05-15T15:21:58;15.50;99.90
15341;DHT22;7770;52.158;5.372;2023-05-15T15:24:45;15.60;99.90
15341;DHT22;7770;52.158;5.372;2023-05-15T15:27:31;15.60;99.90
15341;DHT22;7770;52.158;5.372;2023-05-15T15:30:17;15.60;99.90
15341;DHT22;7770;52.158;5.372;2023-05-15T15:33:04;15.50;99.90
15341;DHT22;7770;52.158;5.372;2023-05-15T15:35:50;15.30;99.90
15341;DHT22;7770;52.158;5.372;2023-05-15T15:38:36;15.30;99.90
15341;DHT22;7770;52.158;5.372;2023-05-15T15:41:28;15.30;99.90
15341;DHT22;7770;52.158;5.372;2023-05-15T15:44:15;15.20;99.90
15341;DHT22;7770;52.158;5.372;2023-05-15T15:47:01;15.10;99.90
15341;DHT22;7770;52.158;5.372;2023-05-15T15:49:48;15.30;99.90
15341;DHT22;7770;52.158;5.372;2023-05-15T15:52:35;15.30;99.90
15341;DHT22;7770;52.158;5.372;2023-05-15T15:55:21;15.30;99.90
15341;DHT22;7770;52.158;5.372;2023-05-15T15:58:07;15.10;99.90
15341;DHT22;7770;52.158;5.372;2023-05-15T16:00:53;15.00;99.90
15341;DHT22;7770;52.158;5.372;2023-05-15T16:03:39;15.10;99.90
15341;DHT22;7770;52.158;5.372;2023-05-15T16:06:25;15.10;99.90
15341;DHT22;7770;52.158;5.372;2023-05-15T16:09:11;15.00;99.90
15341;DHT22;7770;52.158;5.372;2023-05-15T16:11:58;15.00;99.90
15341;DHT22;7770;52.158;5.372;2023-05-15T16:14:44;14.90;99.90
15341;DHT22;7770;52.158;5.372;2023-05-15T16:17:30;14.80;99.90
15341;DHT22;7770;52.158;5.372;2023-05-15T16:20:16;14.70;99.90
15341;DHT22;7770;52.158;5.372;2023-05-15T16:23:02;14.80;99.90
15341;DHT22;7770;52.158;5.372;2023-05-15T16:25:48;14.60;99.90
15341;DHT22;7770;52.158;5.372;2023-05-15T16:28:34;14.70;99.90
15341;DHT22;7770;52.158;5.372;2023-05-15T16:31:20;14.70;99.90
15341;DHT22;7770;52.158;5.372;2023-05-15T16:34:06;14.80;99.90
15341;DHT22;7770;52.158;5.372;2023-05-15T16:36:53;14.90;99.90
15341;DHT22;7770;52.158;5.372;2023-05-15T16:39:39;14.90;99.90
15341;DHT22;7770;52.158;5.372;2023-05-15T16:42:25;14.90;99.90
15341;DHT22;7770;52.158;5.372;2023-05-15T16:45:11;14.80;99.90
15341;DHT22;7770;52.158;5.372;2023-05-15T16:47:57;14.60;99.90
15341;DHT22;7770;52.158;5.372;2023-05-15T16:50:43;14.50;99.90
15341;DHT22;7770;52.158;5.372;2023-05-15T16:53:29;14.70;99.90
15341;DHT22;7770;52.158;5.372;2023-05-15T16:56:15;14.90;99.90
15341;DHT22;7770;52.158;5.372;2023-05-15T16:59:01;15.10;99.90
15341;DHT22;7770;52.158;5.372;2023-05-15T17:01:47;15.10;99.90
15341;DHT22;7770;52.158;5.372;2023-05-15T17:04:33;15.20;99.90
15341;DHT22;7770;52.158;5.372;2023-05-15T17:07:19;15.00;99.90
15341;DHT22;7770;52.158;5.372;2023-05-15T17:10:07;14.80;99.90
15341;DHT22;7770;52.158;5.372;2023-05-15T17:12:53;14.70;99.90
15341;DHT22;7770;52.158;5.372;2023-05-15T17:15:40;14.70;99.90
15341;DHT22;7770;52.158;5.372;2023-05-15T17:18:26;14.70;99.90
15341;DHT22;7770;52.158;5.372;2023-05-15T17:21:12;14.80;99.90
15341;DHT22;7770;52.158;5.372;2023-05-15T17:23:58;14.90;99.90
15341;DHT22;7770;52.158;5.372;2023-05-15T17:26:44;14.80;99.90
15341;DHT22;7770;52.158;5.372;2023-05-15T17:29:30;14.60;99.90
15341;DHT22;7770;52.158;5.372;2023-05-15T17:32:16;14.50;99.90
15341;DHT22;7770;52.158;5.372;2023-05-15T17:35:03;14.50;99.90
15341;DHT22;7770;52.158;5.372;2023-05-15T17:37:49;14.40;99.90
15341;DHT22;7770;52.158;5.372;2023-05-15T17:40:36;14.40;99.90
15341;DHT22;7770;52.158;5.372;2023-05-15T17:43:22;14.30;99.90
15341;DHT22;7770;52.158;5.372;2023-05-15T17:46:08;14.00;99.90
15341;DHT22;7770;52.158;5.372;2023-05-15T17:48:54;13.90;99.90
15341;DHT22;7770;52.158;5.372;2023-05-15T17:51:40;13.80;99.90
15341;DHT22;7770;52.158;5.372;2023-05-15T17:54:26;13.80;99.90
15341;DHT22;7770;52.158;5.372;2023-05-15T17:57:12;13.70;99.90
15341;DHT22;7770;52.158;5.372;2023-05-15T17:59:58;13.60;99.90
15341;DHT22;7770;52.158;5.372;2023-05-15T18:02:44;13.50;99.90
15341;DHT22;7770;52.158;5.372;2023-05-15T18:05:30;13.50;99.90
15341;DHT22;7770;52.158;5.372;2023-05-15T18:08:16;13.30;99.90
15341;DHT22;7770;52.158;5.372;2023-05-15T18:11:03;13.20;99.90
15341;DHT22;7770;52.158;5.372;2023-05-15T18:13:49;13.30;99.90
15341;DHT22;7770;52.158;5.372;2023-05-15T18:16:35;13.30;99.90
15341;DHT22;7770;52.158;5.372;2023-05-15T18:19:21;13.20;99.90